Thunder radar more information blitzortung!


Radar de pluja more information rain snow radar


Visita la nostra xarxa de llocs de meteo:

Template documentation
and downloads

And another site



No particular awareness of the weather is required.    There are no Weather-warnings

Pagina Historial Weather Underground text

Diari Resum Octubre 24, 2017 Unitats:  Mètric    Imperial   Tant
« Previous Dia
SegĂźent Dia »
Diari Setmana Mensual Anual Personalitzada
  Maxima: Minima: Media:
Temperatura: 24.7 °C 9.6 °C 17.5 °C
Punt de rosada: 11.6 °C 5.2 °C 8.4 °C
Humitat: 75 % 42 % 57 %
Wind Speed: 11.1 km/h 0.0 km/h 3.2 km/h
RĂ fegues de vent: 11.1 km/h - -
Vent:- - SSW
Pression baro: 1026.0 hPa 1021.9 hPa -
Precipitacions: 0.0 mm    
Historical Graphs
 
 
Dades de taula per Octubre 24, 2017
Temps Temperatura Punt de rosada Pression baro Vent Wind Speed RĂ fegues de vent Humitat Rainfall Rate (Hourly)
00:04 13.0 °C 5.9 °C 1023.9 hPa WSW 1.9 km/h 1.9 km/h 62 % 0.0 mm
00:05 10.4 °C 5.8 °C 1023.9 hPa WSW 1.6 km/h 3.2 km/h 73 % 0.0 mm
00:09 12.9 °C 6.0 °C 1023.9 hPa Calm     63 % 0.0 mm
00:15 10.4 °C 5.9 °C 1023.9 hPa Calm   3.2 km/h 74 % 0.0 mm
00:25 10.4 °C 5.9 °C 1023.9 hPa Calm     74 % 0.0 mm
00:35 10.4 °C 5.9 °C 1023.9 hPa Calm   3.2 km/h 74 % 0.0 mm
00:45 10.4 °C 5.9 °C 1023.9 hPa Calm   1.6 km/h 74 % 0.0 mm
00:55 10.4 °C 5.9 °C 1023.9 hPa WNW 1.6 km/h 1.6 km/h 74 % 0.0 mm
01:05 9.8 °C 5.4 °C 1022.9 hPa WSW 3.2 km/h 3.2 km/h 74 % 0.0 mm
01:15 9.8 °C 5.4 °C 1023.9 hPa SW 1.6 km/h 3.2 km/h 74 % 0.0 mm
01:25 9.9 °C 5.7 °C 1023.9 hPa SW 1.6 km/h 1.6 km/h 75 % 0.0 mm
01:35 10.1 °C 5.7 °C 1023.9 hPa WSW 1.6 km/h 4.8 km/h 74 % 0.0 mm
01:55 10.2 °C 5.8 °C 1023.9 hPa West 1.6 km/h 3.2 km/h 74 % 0.0 mm
02:05 9.6 °C 5.2 °C 1023.9 hPa WSW 3.2 km/h 4.8 km/h 74 % 0.0 mm
02:15 9.8 °C 5.6 °C 1023.9 hPa WSW 1.6 km/h 3.2 km/h 75 % 0.0 mm
02:25 10.1 °C 5.9 °C 1023.9 hPa Calm   3.2 km/h 75 % 0.0 mm
02:35 10.4 °C 6.2 °C 1023.9 hPa West 1.6 km/h 3.2 km/h 75 % 0.0 mm
02:45 10.4 °C 6.2 °C 1023.9 hPa West 1.6 km/h 1.6 km/h 75 % 0.0 mm
02:55 10.1 °C 5.9 °C 1023.9 hPa Calm   1.6 km/h 75 % 0.0 mm
03:05 10.1 °C 5.9 °C 1023.9 hPa Calm     75 % 0.0 mm
03:15 10.3 °C 6.1 °C 1023.9 hPa Calm   3.2 km/h 75 % 0.0 mm
03:25 10.5 °C 6.3 °C 1023.9 hPa Calm   3.2 km/h 75 % 0.0 mm
03:35 10.3 °C 6.1 °C 1023.9 hPa WNW 1.6 km/h 1.6 km/h 75 % 0.0 mm
03:45 10.5 °C 6.3 °C 1023.9 hPa Calm   3.2 km/h 75 % 0.0 mm
03:55 10.9 °C 6.7 °C 1023.9 hPa West 1.6 km/h 3.2 km/h 75 % 0.0 mm
04:05 11.3 °C 7.0 °C 1024.9 hPa West 1.6 km/h 3.2 km/h 75 % 0.0 mm
04:15 11.9 °C 7.4 °C 1024.9 hPa WNW 1.6 km/h 3.2 km/h 74 % 0.0 mm
04:25 12.3 °C 7.8 °C 1024.9 hPa Calm   1.6 km/h 74 % 0.0 mm
04:35 12.8 °C 8.1 °C 1024.9 hPa Calm   4.8 km/h 73 % 0.0 mm
04:45 13.1 °C 8.2 °C 1026.0 hPa Calm   3.2 km/h 72 % 0.0 mm
04:55 13.5 °C 8.3 °C 1026.0 hPa Calm   3.2 km/h 71 % 0.0 mm
05:05 14.0 °C 8.4 °C 1026.0 hPa Calm   3.2 km/h 69 % 0.0 mm
05:15 14.5 °C 8.9 °C 1026.0 hPa Calm   3.2 km/h 69 % 0.0 mm
10:16 14.6 °C 8.8 °C 1026.0 hPa NNW 5.6 km/h 5.6 km/h 68 % 0.0 mm
10:17 14.6 °C 8.8 °C 1026.0 hPa NW 3.7 km/h 3.7 km/h 68 % 0.0 mm
10:22 14.8 °C 8.7 °C 1026.0 hPa ENE 3.7 km/h 3.7 km/h 67 % 0.0 mm
10:27 15.1 °C 9.0 °C 1026.0 hPa NW 3.7 km/h 3.7 km/h 67 % 0.0 mm
10:32 15.4 °C 9.3 °C 1026.0 hPa WSW 2.6 km/h   67 % 0.0 mm
10:37 16.0 °C 9.7 °C 1026.0 hPa Calm     66 % 0.0 mm
10:42 16.0 °C 9.4 °C 1026.0 hPa NW 3.7 km/h 3.7 km/h 65 % 0.0 mm
10:43 16.0 °C 9.4 °C 1026.0 hPa NW 3.7 km/h   65 % 0.0 mm
10:48 16.3 °C 9.7 °C 1026.0 hPa NNW 1.9 km/h 1.9 km/h 65 % 0.0 mm
10:53 16.5 °C 9.7 °C 1026.0 hPa NE 3.7 km/h 3.7 km/h 64 % 0.0 mm
10:58 16.6 °C 9.8 °C 1026.0 hPa WNW 3.7 km/h 3.7 km/h 64 % 0.0 mm
11:03 16.9 °C 9.8 °C 1026.0 hPa North 1.9 km/h 1.9 km/h 63 % 0.0 mm
11:08 17.0 °C 9.4 °C 1026.0 hPa ENE 5.6 km/h 5.6 km/h 61 % 0.0 mm
11:18 17.2 °C 9.6 °C 1026.0 hPa NE 6.1 km/h 6.1 km/h 61 % 0.0 mm
11:23 17.5 °C 9.7 °C 1026.0 hPa ENE 3.7 km/h 3.7 km/h 60 % 0.0 mm
11:28 17.9 °C 10.0 °C 1024.9 hPa NNE 3.7 km/h 3.7 km/h 60 % 0.0 mm
11:33 18.1 °C 9.9 °C 1024.9 hPa East 7.4 km/h 7.4 km/h 59 % 0.0 mm
11:38 17.9 °C 9.5 °C 1024.9 hPa NE 9.3 km/h 9.3 km/h 58 % 0.0 mm
11:43 18.0 °C 9.6 °C 1024.9 hPa NNE 9.3 km/h 9.3 km/h 58 % 0.0 mm
11:48 17.9 °C 9.3 °C 1024.9 hPa NNE 7.4 km/h 7.4 km/h 57 % 0.0 mm
11:53 18.0 °C 9.3 °C 1024.9 hPa NE 7.4 km/h 7.4 km/h 57 % 0.0 mm
11:58 18.3 °C 9.6 °C 1026.0 hPa NNE 11.1 km/h 11.1 km/h 57 % 0.0 mm
12:03 18.5 °C 9.6 °C 1026.0 hPa East 4.2 km/h 4.2 km/h 56 % 0.0 mm
12:08 18.8 °C 9.6 °C 1026.0 hPa NW 7.4 km/h 7.4 km/h 55 % 0.0 mm
12:13 18.8 °C 9.6 °C 1024.9 hPa NNE 9.3 km/h 9.3 km/h 55 % 0.0 mm
12:18 19.0 °C 9.5 °C 1024.9 hPa ENE 8.7 km/h 8.7 km/h 54 % 0.0 mm
12:23 18.7 °C 9.2 °C 1024.9 hPa ENE 7.4 km/h 7.4 km/h 54 % 0.0 mm
12:28 19.0 °C 9.2 °C 1024.9 hPa NNW 5.6 km/h 5.6 km/h 53 % 0.0 mm
12:33 19.0 °C 9.2 °C 1024.9 hPa NNE 9.3 km/h 9.3 km/h 53 % 0.0 mm
12:38 19.5 °C 9.7 °C 1024.9 hPa NE 6.1 km/h 6.1 km/h 53 % 0.0 mm
12:43 19.7 °C 9.8 °C 1024.9 hPa NNE 3.7 km/h 3.7 km/h 53 % 0.0 mm
12:48 19.8 °C 9.7 °C 1024.9 hPa ENE 7.4 km/h 7.4 km/h 52 % 0.0 mm
12:53 19.6 °C 9.2 °C 1024.9 hPa NE 5.6 km/h 5.6 km/h 51 % 0.0 mm
12:58 19.7 °C 9.3 °C 1023.9 hPa NNE 6.1 km/h 6.1 km/h 51 % 0.0 mm
13:03 20.1 °C 9.7 °C 1023.9 hPa NNE 7.4 km/h 7.4 km/h 51 % 0.0 mm
13:08 20.2 °C 9.4 °C 1023.9 hPa ESE 3.7 km/h 3.7 km/h 50 % 0.0 mm
13:13 20.3 °C 9.6 °C 1023.9 hPa ENE 3.7 km/h 3.7 km/h 50 % 0.0 mm
13:18 20.8 °C 10.0 °C 1023.9 hPa Calm     50 % 0.0 mm
13:23 21.3 °C 10.4 °C 1023.9 hPa SE 5.6 km/h 5.6 km/h 50 % 0.0 mm
13:28 21.2 °C 10.1 °C 1023.9 hPa SE 4.7 km/h 4.7 km/h 49 % 0.0 mm
13:33 21.0 °C 9.6 °C 1023.9 hPa ESE 5.6 km/h 5.6 km/h 48 % 0.0 mm
13:38 21.1 °C 9.7 °C 1023.9 hPa East 5.6 km/h 5.6 km/h 48 % 0.0 mm
13:43 21.1 °C 9.7 °C 1023.9 hPa East 3.9 km/h 4.2 km/h 48 % 0.0 mm
13:48 21.4 °C 9.9 °C 1023.9 hPa ENE 3.9 km/h   48 % 0.0 mm
13:53 21.3 °C 9.8 °C 1023.9 hPa NNE 3.7 km/h 3.7 km/h 48 % 0.0 mm
13:58 21.5 °C 10.0 °C 1023.9 hPa ENE 4.2 km/h 4.2 km/h 48 % 0.0 mm
14:03 21.6 °C 10.1 °C 1023.9 hPa ENE 3.7 km/h 3.7 km/h 48 % 0.0 mm
14:08 21.7 °C 10.2 °C 1023.9 hPa NNE 3.7 km/h 3.7 km/h 48 % 0.0 mm
14:13 21.9 °C 10.4 °C 1023.9 hPa ENE 4.2 km/h 4.2 km/h 48 % 0.0 mm
14:18 22.1 °C 10.6 °C 1023.9 hPa WNW 3.7 km/h 3.7 km/h 48 % 0.0 mm
14:23 22.3 °C 10.4 °C 1023.9 hPa NW 1.9 km/h 1.9 km/h 47 % 0.0 mm
14:28 22.3 °C 10.8 °C 1023.9 hPa East 5.6 km/h 5.6 km/h 48 % 0.0 mm
14:33 22.3 °C 10.4 °C 1023.9 hPa ESE 3.9 km/h 3.9 km/h 47 % 0.0 mm
14:38 22.3 °C 10.4 °C 1023.9 hPa North 2.3 km/h 2.3 km/h 47 % 0.0 mm
14:43 22.5 °C 10.3 °C 1022.9 hPa ENE 7.4 km/h 7.4 km/h 46 % 0.0 mm
14:48 22.6 °C 10.4 °C 1022.9 hPa East 5.6 km/h 5.6 km/h 46 % 0.0 mm
14:53 22.7 °C 10.5 °C 1022.9 hPa ENE 5.6 km/h 5.6 km/h 46 % 0.0 mm
14:58 22.8 °C 10.2 °C 1022.9 hPa ESE 5.6 km/h 5.6 km/h 45 % 0.0 mm
15:03 23.1 °C 10.5 °C 1022.9 hPa South 3.7 km/h 3.7 km/h 45 % 0.0 mm
15:08 23.3 °C 10.3 °C 1022.9 hPa East 3.7 km/h 3.7 km/h 44 % 0.0 mm
15:13 23.1 °C 9.8 °C 1022.9 hPa SE 5.6 km/h 5.6 km/h 43 % 0.0 mm
15:18 23.3 °C 10.3 °C 1022.9 hPa SSE 6.1 km/h 6.1 km/h 44 % 0.0 mm
15:23 23.6 °C 10.3 °C 1022.9 hPa SW 1.9 km/h   43 % 0.0 mm
15:28 24.1 °C 11.1 °C 1022.9 hPa SSE 3.7 km/h   44 % 0.0 mm
15:33 24.5 °C 11.4 °C 1022.9 hPa West 5.6 km/h 5.6 km/h 44 % 0.0 mm
15:38 24.6 °C 11.6 °C 1022.9 hPa SW 7.4 km/h 7.4 km/h 44 % 0.0 mm
15:43 24.3 °C 10.6 °C 1021.9 hPa SSW 3.7 km/h 3.7 km/h 42 % 0.0 mm
15:48 24.5 °C 11.1 °C 1021.9 hPa WSW 4.7 km/h 4.7 km/h 43 % 0.0 mm
15:53 24.7 °C 11.3 °C 1021.9 hPa West 5.6 km/h 5.6 km/h 43 % 0.0 mm
15:58 24.7 °C 11.3 °C 1022.9 hPa SW 9.7 km/h 9.7 km/h 43 % 0.0 mm
16:03 24.4 °C 10.7 °C 1022.9 hPa SW 5.6 km/h 5.6 km/h 42 % 0.0 mm
16:08 24.6 °C 11.2 °C 1022.9 hPa WSW 5.8 km/h 5.8 km/h 43 % 0.0 mm
16:13 24.6 °C 11.2 °C 1021.9 hPa SW 5.6 km/h 5.6 km/h 43 % 0.0 mm
16:18 24.4 °C 11.0 °C 1021.9 hPa SW 9.3 km/h 9.3 km/h 43 % 0.0 mm
16:21 24.3 °C 11.3 °C 1021.9 hPa SSW 4.7 km/h 4.7 km/h 44 % 0.0 mm
16:26 24.1 °C 11.1 °C 1021.9 hPa SW 5.6 km/h 5.6 km/h 44 % 0.0 mm
16:31 23.8 °C 10.8 °C 1021.9 hPa SSW 9.3 km/h 9.3 km/h 44 % 0.0 mm
16:36 23.9 °C 10.9 °C 1021.9 hPa WSW 7.4 km/h 7.4 km/h 44 % 0.0 mm
16:41 23.9 °C 10.9 °C 1021.9 hPa SSW 11.1 km/h 11.1 km/h 44 % 0.0 mm
16:46 24.0 °C 11.0 °C 1021.9 hPa SSW 7.4 km/h 7.4 km/h 44 % 0.0 mm
16:51 23.8 °C 10.8 °C 1021.9 hPa WSW 9.3 km/h 9.3 km/h 44 % 0.0 mm
16:56 23.8 °C 10.8 °C 1022.9 hPa WSW 10.8 km/h 10.8 km/h 44 % 0.0 mm
17:01 23.6 °C 10.3 °C 1022.9 hPa SW 11.1 km/h 11.1 km/h 43 % 0.0 mm
17:06 23.6 °C 10.6 °C 1022.9 hPa SW 9.3 km/h 9.3 km/h 44 % 0.0 mm
17:11 23.5 °C 10.2 °C 1021.9 hPa WSW 9.3 km/h 9.3 km/h 43 % 0.0 mm
17:16 23.7 °C 10.7 °C 1021.9 hPa SW 7.4 km/h 7.4 km/h 44 % 0.0 mm
17:21 23.7 °C 10.7 °C 1021.9 hPa SW 9.3 km/h 9.3 km/h 44 % 0.0 mm
17:26 23.5 °C 10.2 °C 1022.9 hPa SW 7.4 km/h 7.4 km/h 43 % 0.0 mm
17:31 23.5 °C 10.2 °C 1022.9 hPa SSW 6.4 km/h 6.4 km/h 43 % 0.0 mm
17:36 23.3 °C 10.0 °C 1022.9 hPa WSW 9.3 km/h 9.3 km/h 43 % 0.0 mm
17:41 23.1 °C 9.8 °C 1021.9 hPa SW 5.6 km/h 5.6 km/h 43 % 0.0 mm
17:44 23.1 °C 9.8 °C 1021.9 hPa South 6.9 km/h 6.9 km/h 43 % 0.0 mm
17:49 23.0 °C 9.7 °C 1021.9 hPa SSW 5.6 km/h 5.6 km/h 43 % 0.0 mm
17:54 22.9 °C 10.0 °C 1022.9 hPa SW 3.7 km/h 3.9 km/h 44 % 0.0 mm
17:59 22.9 °C 10.0 °C 1022.9 hPa WSW 7.9 km/h 7.9 km/h 44 % 0.0 mm
18:04 22.6 °C 9.7 °C 1022.9 hPa SW 7.6 km/h 7.6 km/h 44 % 0.0 mm
18:09 22.5 °C 9.6 °C 1021.9 hPa WSW 6.4 km/h 6.4 km/h 44 % 0.0 mm
18:14 22.4 °C 9.6 °C 1021.9 hPa SW 3.7 km/h 3.7 km/h 44 % 0.0 mm
18:19 22.3 °C 9.8 °C 1021.9 hPa SSW 4.2 km/h 4.2 km/h 45 % 0.0 mm
18:24 22.0 °C 9.5 °C 1022.9 hPa SW 5.6 km/h 5.6 km/h 45 % 0.0 mm
18:29 21.7 °C 9.2 °C 1022.9 hPa SW 6.1 km/h 6.1 km/h 45 % 0.0 mm
18:34 21.5 °C 9.1 °C 1022.9 hPa WSW 4.2 km/h 4.2 km/h 45 % 0.0 mm
18:39 21.1 °C 8.7 °C 1021.9 hPa SW 7.4 km/h 7.4 km/h 45 % 0.0 mm
18:44 20.9 °C 8.5 °C 1021.9 hPa SSW 5.6 km/h 5.6 km/h 45 % 0.0 mm
18:49 20.7 °C 8.7 °C 1021.9 hPa WSW 3.7 km/h 3.7 km/h 46 % 0.0 mm
18:54 20.5 °C 8.5 °C 1021.9 hPa WSW 3.2 km/h   46 % 0.0 mm
18:59 20.3 °C 8.3 °C 1021.9 hPa SW 3.7 km/h 3.7 km/h 46 % 0.0 mm
19:04 20.1 °C 8.1 °C 1021.9 hPa WSW 1.9 km/h 1.9 km/h 46 % 0.0 mm
19:09 19.9 °C 7.9 °C 1022.9 hPa WSW 3.9 km/h   46 % 0.0 mm
19:14 19.8 °C 7.8 °C 1022.9 hPa SW 3.9 km/h 3.9 km/h 46 % 0.0 mm
19:15 14.3 °C 7.6 °C 1023.9 hPa Calm     64 % 0.0 mm
19:19 19.7 °C 7.7 °C 1022.9 hPa Calm     46 % 0.0 mm
19:24 19.5 °C 7.9 °C 1022.9 hPa Calm     47 % 0.0 mm
19:25 14.3 °C 7.6 °C 1023.9 hPa Calm   1.6 km/h 64 % 0.0 mm
19:29 19.3 °C 7.7 °C 1022.9 hPa Calm     47 % 0.0 mm
19:34 19.1 °C 7.5 °C 1022.9 hPa Calm     47 % 0.0 mm
19:35 14.5 °C 7.8 °C 1023.9 hPa WNW 1.6 km/h 3.2 km/h 64 % 0.0 mm
19:39 19.0 °C 7.4 °C 1022.9 hPa Calm     47 % 0.0 mm
19:44 18.9 °C 7.7 °C 1022.9 hPa Calm     48 % 0.0 mm
19:45 14.3 °C 7.6 °C 1024.9 hPa WNW 1.6 km/h 3.2 km/h 64 % 0.0 mm
19:49 18.7 °C 7.8 °C 1022.9 hPa Calm     49 % 0.0 mm
19:54 18.6 °C 7.7 °C 1022.9 hPa Calm     49 % 0.0 mm
19:55 14.1 °C 7.4 °C 1024.9 hPa West 1.6 km/h 3.2 km/h 64 % 0.0 mm
19:59 18.5 °C 7.6 °C 1022.9 hPa Calm     49 % 0.0 mm
20:04 18.4 °C 7.5 °C 1022.9 hPa Calm     49 % 0.0 mm
20:05 14.0 °C 7.3 °C 1023.9 hPa WSW 1.6 km/h 3.2 km/h 64 % 0.0 mm
20:09 18.3 °C 7.4 °C 1023.9 hPa SW 1.9 km/h   49 % 0.0 mm
20:14 18.1 °C 7.5 °C 1023.9 hPa WNW 1.9 km/h 1.9 km/h 50 % 0.0 mm
20:15 14.0 °C 7.5 °C 1024.9 hPa Calm   3.2 km/h 65 % 0.0 mm
20:19 17.9 °C 7.3 °C 1023.9 hPa Calm     50 % 0.0 mm
20:24 18.0 °C 7.4 °C 1022.9 hPa WNW 2.3 km/h   50 % 0.0 mm
20:25 13.7 °C 7.2 °C 1024.9 hPa SW 1.6 km/h 1.6 km/h 65 % 0.0 mm
20:29 17.9 °C 7.3 °C 1022.9 hPa Calm     50 % 0.0 mm
20:34 17.8 °C 7.2 °C 1022.9 hPa Calm     50 % 0.0 mm
20:35 13.4 °C 7.2 °C 1023.9 hPa SW 1.6 km/h 3.2 km/h 66 % 0.0 mm
20:39 17.8 °C 7.2 °C 1023.9 hPa Calm     50 % 0.0 mm
20:44 17.7 °C 7.2 °C 1023.9 hPa WNW 2.3 km/h   50 % 0.0 mm
20:45 13.2 °C 7.2 °C 1024.9 hPa Calm   1.6 km/h 67 % 0.0 mm
20:49 17.5 °C 7.2 °C 1023.9 hPa Calm     51 % 0.0 mm
20:54 17.5 °C 7.2 °C 1023.9 hPa WNW 1.9 km/h   51 % 0.0 mm
20:55 13.0 °C 7.0 °C 1024.9 hPa Calm     67 % 0.0 mm
20:59 17.4 °C 7.2 °C 1023.9 hPa WNW 3.2 km/h 3.2 km/h 51 % 0.0 mm
21:04 17.2 °C 6.9 °C 1023.9 hPa Calm     51 % 0.0 mm
21:05 12.9 °C 7.1 °C 1023.9 hPa SW 1.6 km/h 3.2 km/h 68 % 0.0 mm
21:09 17.1 °C 7.2 °C 1023.9 hPa Calm     52 % 0.0 mm
21:14 17.0 °C 7.1 °C 1023.9 hPa West 3.7 km/h 3.7 km/h 52 % 0.0 mm
21:15 13.0 °C 7.2 °C 1023.9 hPa SW 1.6 km/h 3.2 km/h 68 % 0.0 mm
21:19 16.9 °C 7.3 °C 1023.9 hPa Calm     53 % 0.0 mm
21:24 16.7 °C 7.1 °C 1023.9 hPa Calm     53 % 0.0 mm
21:25 13.0 °C 7.4 °C 1023.9 hPa Calm   3.2 km/h 69 % 0.0 mm
21:29 16.6 °C 7.2 °C 1023.9 hPa Calm     54 % 0.0 mm
21:34 16.5 °C 7.2 °C 1023.9 hPa Calm     54 % 0.0 mm
21:35 13.0 °C 7.2 °C 1023.9 hPa Calm   3.2 km/h 68 % 0.0 mm
21:39 16.4 °C 7.1 °C 1023.9 hPa Calm     54 % 0.0 mm
21:44 16.4 °C 7.1 °C 1023.9 hPa Calm     54 % 0.0 mm
21:45 13.2 °C 7.4 °C 1023.9 hPa Calm   1.6 km/h 68 % 0.0 mm
21:49 16.3 °C 6.9 °C 1023.9 hPa Calm     54 % 0.0 mm
21:54 16.2 °C 7.2 °C 1023.9 hPa Calm     55 % 0.0 mm
21:55 13.1 °C 7.6 °C 1023.9 hPa Calm     69 % 0.0 mm
21:59 16.2 °C 7.2 °C 1023.9 hPa Calm     55 % 0.0 mm
22:04 16.1 °C 7.3 °C 1023.9 hPa Calm     56 % 0.0 mm
22:05 12.7 °C 6.9 °C 1023.9 hPa WSW 3.2 km/h 3.2 km/h 68 % 0.0 mm
22:09 16.0 °C 7.2 °C 1023.9 hPa Calm     56 % 0.0 mm
22:14 15.9 °C 7.4 °C 1023.9 hPa Calm     57 % 0.0 mm
22:15 12.5 °C 6.9 °C 1023.9 hPa SW 1.6 km/h 3.2 km/h 69 % 0.0 mm
22:19 15.8 °C 7.3 °C 1023.9 hPa Calm     57 % 0.0 mm
22:24 15.7 °C 7.4 °C 1023.9 hPa Calm     58 % 0.0 mm
22:25 12.5 °C 6.9 °C 1023.9 hPa SW 3.2 km/h 3.2 km/h 69 % 0.0 mm
22:29 15.7 °C 7.4 °C 1023.9 hPa Calm     58 % 0.0 mm
22:34 15.7 °C 7.4 °C 1023.9 hPa West 1.9 km/h 1.9 km/h 58 % 0.0 mm
22:35 12.3 °C 6.8 °C 1023.9 hPa SW 1.6 km/h 4.8 km/h 69 % 0.0 mm
22:39 15.8 °C 7.6 °C 1023.9 hPa West 3.7 km/h 3.7 km/h 58 % 0.0 mm
22:44 15.8 °C 7.6 °C 1023.9 hPa Calm     58 % 0.0 mm
22:45 12.2 °C 6.9 °C 1023.9 hPa Calm     70 % 0.0 mm
22:49 15.9 °C 7.7 °C 1023.9 hPa West 1.9 km/h   58 % 0.0 mm
22:54 15.9 °C 7.9 °C 1023.9 hPa SSW 1.9 km/h   59 % 0.0 mm
22:55 12.1 °C 7.0 °C 1023.9 hPa SW 1.6 km/h 3.2 km/h 71 % 0.0 mm
22:59 15.6 °C 7.6 °C 1023.9 hPa WSW 3.7 km/h 3.7 km/h 59 % 0.0 mm
23:04 15.5 °C 7.5 °C 1023.9 hPa Calm     59 % 0.0 mm
23:05 12.0 °C 6.9 °C 1023.9 hPa SW 1.6 km/h 3.2 km/h 71 % 0.0 mm
23:09 15.4 °C 7.7 °C 1023.9 hPa Calm     60 % 0.0 mm
23:14 15.3 °C 7.6 °C 1023.9 hPa WSW 1.9 km/h 1.9 km/h 60 % 0.0 mm
23:15 12.0 °C 6.9 °C 1023.9 hPa Calm   3.2 km/h 71 % 0.0 mm
23:19 15.1 °C 7.6 °C 1023.9 hPa Calm     61 % 0.0 mm
23:24 15.1 °C 7.6 °C 1023.9 hPa SW 3.7 km/h 3.7 km/h 61 % 0.0 mm
23:25 12.0 °C 7.1 °C 1023.9 hPa Calm     72 % 0.0 mm
23:29 15.1 °C 7.6 °C 1023.9 hPa Calm     61 % 0.0 mm
23:34 15.0 °C 7.6 °C 1023.9 hPa Calm     61 % 0.0 mm
23:35 11.9 °C 7.2 °C 1023.9 hPa Calm     73 % 0.0 mm
23:39 15.0 °C 7.8 °C 1023.9 hPa NNE 2.6 km/h 2.6 km/h 62 % 0.0 mm
23:44 14.9 °C 7.7 °C 1023.9 hPa NNE 3.7 km/h   62 % 0.0 mm
23:45 11.9 °C 7.2 °C 1023.9 hPa Calm     73 % 0.0 mm
23:49 14.8 °C 7.6 °C 1023.9 hPa WNW 3.2 km/h   62 % 0.0 mm
23:54 14.7 °C 7.5 °C 1023.9 hPa WNW 1.9 km/h 1.9 km/h 62 % 0.0 mm
23:55 11.9 °C 7.0 °C 1023.9 hPa SW 1.6 km/h 3.2 km/h 72 % 0.0 mm
23:59 14.6 °C 7.6 °C 1023.9 hPa WNW 2.6 km/h 2.6 km/h 63 % 0.0 mm
Meteo Sesrovires
Elogis d' Weather Underground - 3.75 mb

Guio original per  Jim McMurry - jmcmurry@mwt.net Adaptat per a la plantilla per  Wim van der Kuil - Leuven-Template.eu

Trobareu la nostra informacio del temps tambe a:

Weather Underground

AWEKAS